sensor_id;sensor_type;location;lat;lon;timestamp;P1;durP1;ratioP1;P2;durP2;ratioP2
26820;SDS011;37186;51.394;5.454;2022-10-24T00:00:18;5.47;;;5.38;;
26820;SDS011;37186;51.394;5.454;2022-10-24T00:03:18;5.78;;;5.63;;
26820;SDS011;37186;51.394;5.454;2022-10-24T00:06:19;5.80;;;5.65;;
26820;SDS011;37186;51.394;5.454;2022-10-24T00:09:19;5.65;;;5.53;;
26820;SDS011;37186;51.394;5.454;2022-10-24T00:12:20;5.43;;;5.32;;
26820;SDS011;37186;51.394;5.454;2022-10-24T00:15:21;5.57;;;5.47;;
26820;SDS011;37186;51.394;5.454;2022-10-24T00:18:21;5.53;;;5.43;;
26820;SDS011;37186;51.394;5.454;2022-10-24T00:21:22;5.18;;;5.07;;
26820;SDS011;37186;51.394;5.454;2022-10-24T00:24:23;5.55;;;5.45;;
26820;SDS011;37186;51.394;5.454;2022-10-24T00:27:24;5.13;;;5.03;;
26820;SDS011;37186;51.394;5.454;2022-10-24T00:30:24;5.18;;;5.07;;
26820;SDS011;37186;51.394;5.454;2022-10-24T00:33:25;5.10;;;5.00;;
26820;SDS011;37186;51.394;5.454;2022-10-24T00:36:26;5.30;;;5.20;;
26820;SDS011;37186;51.394;5.454;2022-10-24T00:39:27;5.47;;;5.38;;
26820;SDS011;37186;51.394;5.454;2022-10-24T00:42:27;5.40;;;5.30;;
26820;SDS011;37186;51.394;5.454;2022-10-24T00:45:41;5.28;;;5.18;;
26820;SDS011;37186;51.394;5.454;2022-10-24T00:48:49;5.38;;;5.28;;
26820;SDS011;37186;51.394;5.454;2022-10-24T00:51:53;5.28;;;5.18;;
26820;SDS011;37186;51.394;5.454;2022-10-24T00:55:00;5.38;;;5.28;;
26820;SDS011;37186;51.394;5.454;2022-10-24T00:58:03;5.47;;;5.38;;
26820;SDS011;37186;51.394;5.454;2022-10-24T01:01:05;5.60;;;5.50;;
26820;SDS011;37186;51.394;5.454;2022-10-24T01:04:09;5.47;;;5.38;;
26820;SDS011;37186;51.394;5.454;2022-10-24T01:07:21;5.35;;;5.25;;
26820;SDS011;37186;51.394;5.454;2022-10-24T01:10:54;5.32;;;5.22;;
26820;SDS011;37186;51.394;5.454;2022-10-24T01:17:32;5.43;;;5.32;;
26820;SDS011;37186;51.394;5.454;2022-10-24T01:30:48;4.85;;;4.75;;
26820;SDS011;37186;51.394;5.454;2022-10-24T01:33:54;4.90;;;4.80;;
26820;SDS011;37186;51.394;5.454;2022-10-24T01:37:02;4.80;;;4.70;;
26820;SDS011;37186;51.394;5.454;2022-10-24T01:40:16;5.00;;;4.90;;
26820;SDS011;37186;51.394;5.454;2022-10-24T01:43:38;4.97;;;4.88;;
26820;SDS011;37186;51.394;5.454;2022-10-24T01:46:44;5.05;;;4.95;;
26820;SDS011;37186;51.394;5.454;2022-10-24T01:50:07;5.20;;;5.10;;
26820;SDS011;37186;51.394;5.454;2022-10-24T01:53:11;4.88;;;4.78;;
26820;SDS011;37186;51.394;5.454;2022-10-24T01:56:12;4.80;;;4.70;;
26820;SDS011;37186;51.394;5.454;2022-10-24T02:02:30;5.03;;;4.93;;
26820;SDS011;37186;51.394;5.454;2022-10-24T02:05:44;4.80;;;4.70;;
26820;SDS011;37186;51.394;5.454;2022-10-24T02:08:51;4.53;;;4.43;;
26820;SDS011;37186;51.394;5.454;2022-10-24T02:11:55;4.78;;;4.68;;
26820;SDS011;37186;51.394;5.454;2022-10-24T02:14:58;4.88;;;4.78;;
26820;SDS011;37186;51.394;5.454;2022-10-24T02:18:07;4.90;;;4.80;;
26820;SDS011;37186;51.394;5.454;2022-10-24T02:21:22;5.03;;;4.93;;
26820;SDS011;37186;51.394;5.454;2022-10-24T02:24:25;4.82;;;4.72;;
26820;SDS011;37186;51.394;5.454;2022-10-24T02:27:31;4.88;;;4.78;;
26820;SDS011;37186;51.394;5.454;2022-10-24T02:30:38;5.30;;;5.20;;
26820;SDS011;37186;51.394;5.454;2022-10-24T02:33:43;5.10;;;5.00;;
26820;SDS011;37186;51.394;5.454;2022-10-24T02:36:47;5.10;;;5.00;;
26820;SDS011;37186;51.394;5.454;2022-10-24T02:39:50;5.18;;;5.07;;
26820;SDS011;37186;51.394;5.454;2022-10-24T02:42:53;5.07;;;4.97;;
26820;SDS011;37186;51.394;5.454;2022-10-24T02:45:57;5.05;;;4.95;;
26820;SDS011;37186;51.394;5.454;2022-10-24T02:48:59;5.28;;;5.18;;
26820;SDS011;37186;51.394;5.454;2022-10-24T02:52:02;5.75;;;5.60;;
26820;SDS011;37186;51.394;5.454;2022-10-24T02:55:03;5.85;;;5.68;;
26820;SDS011;37186;51.394;5.454;2022-10-24T02:58:05;5.80;;;5.63;;
26820;SDS011;37186;51.394;5.454;2022-10-24T03:01:05;5.45;;;5.35;;
26820;SDS011;37186;51.394;5.454;2022-10-24T03:04:06;6.05;;;5.85;;
26820;SDS011;37186;51.394;5.454;2022-10-24T03:07:06;6.20;;;6.00;;
26820;SDS011;37186;51.394;5.454;2022-10-24T03:10:07;6.68;;;6.47;;
26820;SDS011;37186;51.394;5.454;2022-10-24T03:13:08;6.53;;;6.32;;
26820;SDS011;37186;51.394;5.454;2022-10-24T03:16:08;6.55;;;6.35;;
26820;SDS011;37186;51.394;5.454;2022-10-24T03:19:09;6.72;;;6.53;;
26820;SDS011;37186;51.394;5.454;2022-10-24T03:22:09;6.78;;;6.57;;
26820;SDS011;37186;51.394;5.454;2022-10-24T03:25:10;6.60;;;6.40;;
26820;SDS011;37186;51.394;5.454;2022-10-24T03:28:11;6.70;;;6.50;;
26820;SDS011;37186;51.394;5.454;2022-10-24T03:31:11;6.90;;;6.70;;
26820;SDS011;37186;51.394;5.454;2022-10-24T03:34:12;7.28;;;7.07;;
26820;SDS011;37186;51.394;5.454;2022-10-24T03:37:12;6.80;;;6.60;;
26820;SDS011;37186;51.394;5.454;2022-10-24T03:40:13;7.00;;;6.80;;
26820;SDS011;37186;51.394;5.454;2022-10-24T03:43:13;6.75;;;6.55;;
26820;SDS011;37186;51.394;5.454;2022-10-24T03:46:14;7.10;;;6.90;;
26820;SDS011;37186;51.394;5.454;2022-10-24T03:49:15;6.72;;;6.53;;
26820;SDS011;37186;51.394;5.454;2022-10-24T03:52:15;6.80;;;6.60;;
26820;SDS011;37186;51.394;5.454;2022-10-24T03:55:16;7.00;;;6.80;;
26820;SDS011;37186;51.394;5.454;2022-10-24T03:58:16;6.82;;;6.63;;
26820;SDS011;37186;51.394;5.454;2022-10-24T04:01:17;7.32;;;7.13;;
26820;SDS011;37186;51.394;5.454;2022-10-24T04:04:18;6.88;;;6.68;;
26820;SDS011;37186;51.394;5.454;2022-10-24T04:07:18;6.80;;;6.60;;
26820;SDS011;37186;51.394;5.454;2022-10-24T04:10:19;6.43;;;6.22;;
26820;SDS011;37186;51.394;5.454;2022-10-24T04:13:19;6.40;;;6.20;;
26820;SDS011;37186;51.394;5.454;2022-10-24T04:16:20;6.53;;;6.32;;
26820;SDS011;37186;51.394;5.454;2022-10-24T04:19:22;6.80;;;6.60;;
26820;SDS011;37186;51.394;5.454;2022-10-24T04:22:23;6.30;;;6.10;;
26820;SDS011;37186;51.394;5.454;2022-10-24T04:25:24;6.20;;;6.00;;
26820;SDS011;37186;51.394;5.454;2022-10-24T04:28:24;6.10;;;5.90;;
26820;SDS011;37186;51.394;5.454;2022-10-24T04:31:26;6.05;;;5.85;;
26820;SDS011;37186;51.394;5.454;2022-10-24T04:34:26;5.88;;;5.68;;
26820;SDS011;37186;51.394;5.454;2022-10-24T04:37:27;5.55;;;5.45;;
26820;SDS011;37186;51.394;5.454;2022-10-24T04:40:27;5.43;;;5.32;;
26820;SDS011;37186;51.394;5.454;2022-10-24T04:43:28;5.20;;;5.10;;
26820;SDS011;37186;51.394;5.454;2022-10-24T04:46:29;5.30;;;5.20;;
26820;SDS011;37186;51.394;5.454;2022-10-24T04:49:29;5.07;;;4.97;;
26820;SDS011;37186;51.394;5.454;2022-10-24T04:52:30;5.20;;;5.10;;
26820;SDS011;37186;51.394;5.454;2022-10-24T04:55:30;5.15;;;5.05;;
26820;SDS011;37186;51.394;5.454;2022-10-24T04:58:31;5.50;;;5.40;;
26820;SDS011;37186;51.394;5.454;2022-10-24T05:01:32;4.97;;;4.88;;
26820;SDS011;37186;51.394;5.454;2022-10-24T05:04:32;5.38;;;5.28;;
26820;SDS011;37186;51.394;5.454;2022-10-24T05:07:33;5.35;;;5.25;;
26820;SDS011;37186;51.394;5.454;2022-10-24T05:10:33;5.15;;;5.05;;
26820;SDS011;37186;51.394;5.454;2022-10-24T05:13:34;5.25;;;5.15;;
26820;SDS011;37186;51.394;5.454;2022-10-24T05:16:34;5.20;;;5.10;;
26820;SDS011;37186;51.394;5.454;2022-10-24T05:19:35;4.88;;;4.78;;
26820;SDS011;37186;51.394;5.454;2022-10-24T05:22:36;5.15;;;5.05;;
26820;SDS011;37186;51.394;5.454;2022-10-24T05:25:37;5.13;;;5.03;;
26820;SDS011;37186;51.394;5.454;2022-10-24T05:28:37;5.10;;;5.00;;
26820;SDS011;37186;51.394;5.454;2022-10-24T05:31:38;5.15;;;5.05;;
26820;SDS011;37186;51.394;5.454;2022-10-24T05:34:39;4.95;;;4.85;;
26820;SDS011;37186;51.394;5.454;2022-10-24T05:37:39;5.05;;;4.95;;
26820;SDS011;37186;51.394;5.454;2022-10-24T05:40:40;5.28;;;5.18;;
26820;SDS011;37186;51.394;5.454;2022-10-24T05:43:40;5.20;;;5.10;;
26820;SDS011;37186;51.394;5.454;2022-10-24T05:46:41;6.38;;;6.18;;
26820;SDS011;37186;51.394;5.454;2022-10-24T05:49:41;6.05;;;5.85;;
26820;SDS011;37186;51.394;5.454;2022-10-24T05:52:42;6.18;;;5.97;;
26820;SDS011;37186;51.394;5.454;2022-10-24T05:55:42;6.45;;;6.25;;
26820;SDS011;37186;51.394;5.454;2022-10-24T05:58:44;6.60;;;6.40;;
26820;SDS011;37186;51.394;5.454;2022-10-24T06:01:44;6.60;;;6.40;;
26820;SDS011;37186;51.394;5.454;2022-10-24T06:04:45;6.85;;;6.65;;
26820;SDS011;37186;51.394;5.454;2022-10-24T06:07:45;7.05;;;6.85;;
26820;SDS011;37186;51.394;5.454;2022-10-24T06:10:47;6.90;;;6.70;;
26820;SDS011;37186;51.394;5.454;2022-10-24T06:13:48;6.97;;;6.78;;
26820;SDS011;37186;51.394;5.454;2022-10-24T06:16:49;7.30;;;7.10;;
26820;SDS011;37186;51.394;5.454;2022-10-24T06:19:49;7.18;;;6.97;;
26820;SDS011;37186;51.394;5.454;2022-10-24T06:22:50;7.63;;;7.43;;
26820;SDS011;37186;51.394;5.454;2022-10-24T06:25:51;7.22;;;7.03;;
26820;SDS011;37186;51.394;5.454;2022-10-24T06:28:51;7.50;;;7.30;;
26820;SDS011;37186;51.394;5.454;2022-10-24T06:31:53;7.25;;;7.05;;
26820;SDS011;37186;51.394;5.454;2022-10-24T06:34:54;7.32;;;7.13;;
26820;SDS011;37186;51.394;5.454;2022-10-24T06:37:54;7.55;;;7.35;;
26820;SDS011;37186;51.394;5.454;2022-10-24T06:40:55;7.28;;;7.07;;
26820;SDS011;37186;51.394;5.454;2022-10-24T06:43:55;7.57;;;7.38;;
26820;SDS011;37186;51.394;5.454;2022-10-24T06:46:56;7.70;;;7.50;;
26820;SDS011;37186;51.394;5.454;2022-10-24T06:49:56;7.30;;;7.10;;
26820;SDS011;37186;51.394;5.454;2022-10-24T06:52:57;7.25;;;7.05;;
26820;SDS011;37186;51.394;5.454;2022-10-24T06:56:01;7.78;;;7.57;;
26820;SDS011;37186;51.394;5.454;2022-10-24T06:59:13;7.55;;;7.35;;
26820;SDS011;37186;51.394;5.454;2022-10-24T07:02:15;7.65;;;7.45;;
26820;SDS011;37186;51.394;5.454;2022-10-24T07:05:15;7.95;;;7.75;;
26820;SDS011;37186;51.394;5.454;2022-10-24T07:08:16;8.05;;;7.85;;
26820;SDS011;37186;51.394;5.454;2022-10-24T07:11:17;8.30;;;8.10;;
26820;SDS011;37186;51.394;5.454;2022-10-24T07:14:17;8.80;;;8.55;;
26820;SDS011;37186;51.394;5.454;2022-10-24T07:17:18;8.75;;;8.55;;
26820;SDS011;37186;51.394;5.454;2022-10-24T07:20:19;9.30;;;9.00;;
26820;SDS011;37186;51.394;5.454;2022-10-24T07:23:20;9.43;;;9.13;;
26820;SDS011;37186;51.394;5.454;2022-10-24T07:26:21;9.18;;;8.88;;
26820;SDS011;37186;51.394;5.454;2022-10-24T07:29:22;9.88;;;9.57;;
26820;SDS011;37186;51.394;5.454;2022-10-24T07:32:23;9.10;;;8.80;;
26820;SDS011;37186;51.394;5.454;2022-10-24T07:35:24;9.05;;;8.75;;
26820;SDS011;37186;51.394;5.454;2022-10-24T07:38:24;10.23;;;9.93;;
26820;SDS011;37186;51.394;5.454;2022-10-24T07:41:26;9.85;;;9.55;;
26820;SDS011;37186;51.394;5.454;2022-10-24T07:44:28;9.55;;;9.25;;
26820;SDS011;37186;51.394;5.454;2022-10-24T07:47:29;9.73;;;9.43;;
26820;SDS011;37186;51.394;5.454;2022-10-24T07:50:30;10.00;;;9.70;;
26820;SDS011;37186;51.394;5.454;2022-10-24T07:53:30;9.93;;;9.63;;
26820;SDS011;37186;51.394;5.454;2022-10-24T07:56:31;9.68;;;9.38;;
26820;SDS011;37186;51.394;5.454;2022-10-24T07:59:31;9.73;;;9.43;;
26820;SDS011;37186;51.394;5.454;2022-10-24T08:02:32;9.63;;;9.32;;
26820;SDS011;37186;51.394;5.454;2022-10-24T08:05:32;9.65;;;9.35;;
26820;SDS011;37186;51.394;5.454;2022-10-24T08:08:33;9.82;;;9.52;;
26820;SDS011;37186;51.394;5.454;2022-10-24T08:11:33;9.82;;;9.52;;
26820;SDS011;37186;51.394;5.454;2022-10-24T08:14:35;9.63;;;9.32;;
26820;SDS011;37186;51.394;5.454;2022-10-24T08:17:37;9.23;;;8.93;;
26820;SDS011;37186;51.394;5.454;2022-10-24T08:20:37;9.65;;;9.35;;
26820;SDS011;37186;51.394;5.454;2022-10-24T08:23:39;9.23;;;8.93;;
26820;SDS011;37186;51.394;5.454;2022-10-24T08:26:42;9.32;;;9.02;;
26820;SDS011;37186;51.394;5.454;2022-10-24T08:29:43;9.10;;;8.80;;
26820;SDS011;37186;51.394;5.454;2022-10-24T08:32:44;8.35;;;8.15;;
26820;SDS011;37186;51.394;5.454;2022-10-24T08:35:44;8.85;;;8.60;;
26820;SDS011;37186;51.394;5.454;2022-10-24T08:38:45;8.50;;;8.30;;
26820;SDS011;37186;51.394;5.454;2022-10-24T08:41:48;8.75;;;8.52;;
26820;SDS011;37186;51.394;5.454;2022-10-24T08:44:53;8.38;;;8.18;;
26820;SDS011;37186;51.394;5.454;2022-10-24T08:48:03;8.85;;;8.57;;
26820;SDS011;37186;51.394;5.454;2022-10-24T08:51:12;8.27;;;8.07;;
26820;SDS011;37186;51.394;5.454;2022-10-24T08:54:37;8.35;;;8.15;;
26820;SDS011;37186;51.394;5.454;2022-10-24T08:57:41;8.07;;;7.88;;
26820;SDS011;37186;51.394;5.454;2022-10-24T09:00:47;7.85;;;7.65;;
26820;SDS011;37186;51.394;5.454;2022-10-24T09:03:50;8.27;;;8.07;;
26820;SDS011;37186;51.394;5.454;2022-10-24T09:06:52;8.38;;;8.18;;
26820;SDS011;37186;51.394;5.454;2022-10-24T09:10:04;8.15;;;7.95;;
26820;SDS011;37186;51.394;5.454;2022-10-24T09:13:36;7.78;;;7.57;;
26820;SDS011;37186;51.394;5.454;2022-10-24T09:16:37;8.07;;;7.88;;
26820;SDS011;37186;51.394;5.454;2022-10-24T09:19:43;8.20;;;8.00;;
26820;SDS011;37186;51.394;5.454;2022-10-24T09:22:54;8.35;;;8.15;;
26820;SDS011;37186;51.394;5.454;2022-10-24T09:25:58;8.35;;;8.15;;
26820;SDS011;37186;51.394;5.454;2022-10-24T09:28:59;8.07;;;7.88;;
26820;SDS011;37186;51.394;5.454;2022-10-24T09:32:00;7.80;;;7.60;;
26820;SDS011;37186;51.394;5.454;2022-10-24T09:35:07;8.27;;;8.07;;
26820;SDS011;37186;51.394;5.454;2022-10-24T09:38:33;8.80;;;8.57;;
26820;SDS011;37186;51.394;5.454;2022-10-24T09:41:33;7.78;;;7.57;;
26820;SDS011;37186;51.394;5.454;2022-10-24T09:44:38;8.40;;;8.20;;
26820;SDS011;37186;51.394;5.454;2022-10-24T09:47:42;8.35;;;8.15;;
26820;SDS011;37186;51.394;5.454;2022-10-24T09:50:43;8.07;;;7.88;;
26820;SDS011;37186;51.394;5.454;2022-10-24T09:57:17;8.45;;;8.25;;
26820;SDS011;37186;51.394;5.454;2022-10-24T10:00:19;8.57;;;8.38;;
26820;SDS011;37186;51.394;5.454;2022-10-24T10:03:28;8.20;;;8.00;;
26820;SDS011;37186;51.394;5.454;2022-10-24T10:06:28;8.40;;;8.20;;
26820;SDS011;37186;51.394;5.454;2022-10-24T10:09:31;8.90;;;8.60;;
26820;SDS011;37186;51.394;5.454;2022-10-24T10:12:38;8.07;;;7.88;;
26820;SDS011;37186;51.394;5.454;2022-10-24T10:15:44;8.20;;;8.00;;
26820;SDS011;37186;51.394;5.454;2022-10-24T10:18:45;7.93;;;7.72;;
26820;SDS011;37186;51.394;5.454;2022-10-24T10:21:55;7.40;;;7.20;;
26820;SDS011;37186;51.394;5.454;2022-10-24T10:24:57;7.55;;;7.35;;
26820;SDS011;37186;51.394;5.454;2022-10-24T10:27:59;9.13;;;8.85;;
26820;SDS011;37186;51.394;5.454;2022-10-24T10:31:00;9.93;;;9.63;;
26820;SDS011;37186;51.394;5.454;2022-10-24T10:34:11;10.27;;;9.98;;
26820;SDS011;37186;51.394;5.454;2022-10-24T10:47:35;8.50;;;8.30;;
26820;SDS011;37186;51.394;5.454;2022-10-24T10:50:46;8.73;;;8.50;;
26820;SDS011;37186;51.394;5.454;2022-10-24T10:57:18;7.90;;;7.70;;
26820;SDS011;37186;51.394;5.454;2022-10-24T11:03:54;8.38;;;8.18;;
26820;SDS011;37186;51.394;5.454;2022-10-24T11:10:41;8.50;;;8.30;;
26820;SDS011;37186;51.394;5.454;2022-10-24T11:13:50;9.02;;;8.73;;
26820;SDS011;37186;51.394;5.454;2022-10-24T11:17:23;8.93;;;8.65;;
26820;SDS011;37186;51.394;5.454;2022-10-24T11:20:39;8.57;;;8.38;;
26820;SDS011;37186;51.394;5.454;2022-10-24T11:24:00;9.73;;;9.43;;
26820;SDS011;37186;51.394;5.454;2022-10-24T11:27:10;9.18;;;8.88;;
26820;SDS011;37186;51.394;5.454;2022-10-24T11:30:19;8.65;;;8.45;;
26820;SDS011;37186;51.394;5.454;2022-10-24T11:33:48;8.80;;;8.57;;
26820;SDS011;37186;51.394;5.454;2022-10-24T11:37:05;8.50;;;8.30;;
26820;SDS011;37186;51.394;5.454;2022-10-24T11:40:14;9.35;;;9.05;;
26820;SDS011;37186;51.394;5.454;2022-10-24T11:43:24;9.02;;;8.73;;
26820;SDS011;37186;51.394;5.454;2022-10-24T11:46:38;8.88;;;8.60;;
26820;SDS011;37186;51.394;5.454;2022-10-24T11:49:44;9.52;;;9.23;;
26820;SDS011;37186;51.394;5.454;2022-10-24T11:52:51;9.05;;;8.75;;
26820;SDS011;37186;51.394;5.454;2022-10-24T11:56:10;9.95;;;9.65;;
26820;SDS011;37186;51.394;5.454;2022-10-24T11:59:32;9.40;;;9.10;;
26820;SDS011;37186;51.394;5.454;2022-10-24T12:02:50;10.25;;;9.95;;
26820;SDS011;37186;51.394;5.454;2022-10-24T12:05:58;10.23;;;9.93;;
26820;SDS011;37186;51.394;5.454;2022-10-24T12:19:14;10.10;;;9.80;;
26820;SDS011;37186;51.394;5.454;2022-10-24T12:22:19;10.27;;;9.98;;
26820;SDS011;37186;51.394;5.454;2022-10-24T12:28:37;10.77;;;10.48;;
26820;SDS011;37186;51.394;5.454;2022-10-24T12:31:39;11.20;;;10.90;;
26820;SDS011;37186;51.394;5.454;2022-10-24T12:34:41;11.63;;;11.32;;
26820;SDS011;37186;51.394;5.454;2022-10-24T12:37:42;12.57;;;12.18;;
26820;SDS011;37186;51.394;5.454;2022-10-24T12:40:53;12.70;;;12.30;;
26820;SDS011;37186;51.394;5.454;2022-10-24T12:48:11;12.88;;;12.48;;
26820;SDS011;37186;51.394;5.454;2022-10-24T12:51:04;12.50;;;12.10;;
26820;SDS011;37186;51.394;5.454;2022-10-24T12:54:39;12.02;;;11.65;;
26820;SDS011;37186;51.394;5.454;2022-10-24T12:57:43;12.57;;;12.18;;
26820;SDS011;37186;51.394;5.454;2022-10-24T13:00:52;12.20;;;11.82;;
26820;SDS011;37186;51.394;5.454;2022-10-24T13:04:19;12.18;;;11.77;;
26820;SDS011;37186;51.394;5.454;2022-10-24T13:07:48;12.63;;;12.23;;
26820;SDS011;37186;51.394;5.454;2022-10-24T13:27:33;12.52;;;12.13;;
26820;SDS011;37186;51.394;5.454;2022-10-24T13:30:34;12.35;;;11.95;;
26820;SDS011;37186;51.394;5.454;2022-10-24T13:33:38;11.10;;;10.80;;
26820;SDS011;37186;51.394;5.454;2022-10-24T13:36:40;12.35;;;11.98;;
26820;SDS011;37186;51.394;5.454;2022-10-24T13:39:49;13.10;;;12.70;;
26820;SDS011;37186;51.394;5.454;2022-10-24T13:42:54;14.05;;;13.65;;
26820;SDS011;37186;51.394;5.454;2022-10-24T13:46:03;12.90;;;12.50;;
26820;SDS011;37186;51.394;5.454;2022-10-24T13:49:11;15.02;;;14.52;;
26820;SDS011;37186;51.394;5.454;2022-10-24T13:55:30;13.15;;;12.75;;
26820;SDS011;37186;51.394;5.454;2022-10-24T13:58:36;12.00;;;11.63;;
26820;SDS011;37186;51.394;5.454;2022-10-24T14:01:38;10.52;;;10.23;;
26820;SDS011;37186;51.394;5.454;2022-10-24T14:04:44;10.00;;;9.70;;
26820;SDS011;37186;51.394;5.454;2022-10-24T14:07:46;10.60;;;10.30;;
26820;SDS011;37186;51.394;5.454;2022-10-24T14:10:47;10.13;;;9.82;;
26820;SDS011;37186;51.394;5.454;2022-10-24T14:13:53;10.52;;;10.23;;
26820;SDS011;37186;51.394;5.454;2022-10-24T14:20:30;10.02;;;9.73;;
26820;SDS011;37186;51.394;5.454;2022-10-24T14:23:33;10.32;;;10.02;;
26820;SDS011;37186;51.394;5.454;2022-10-24T14:26:38;11.10;;;10.80;;
26820;SDS011;37186;51.394;5.454;2022-10-24T14:29:49;11.13;;;10.82;;
26820;SDS011;37186;51.394;5.454;2022-10-24T14:33:06;11.65;;;11.32;;
26820;SDS011;37186;51.394;5.454;2022-10-24T14:36:14;11.18;;;10.88;;
26820;SDS011;37186;51.394;5.454;2022-10-24T14:39:19;9.88;;;9.57;;
26820;SDS011;37186;51.394;5.454;2022-10-24T14:42:22;9.75;;;9.45;;
26820;SDS011;37186;51.394;5.454;2022-10-24T14:45:25;10.52;;;10.23;;
26820;SDS011;37186;51.394;5.454;2022-10-24T14:48:29;11.70;;;11.40;;
26820;SDS011;37186;51.394;5.454;2022-10-24T14:51:30;12.82;;;12.43;;
26820;SDS011;37186;51.394;5.454;2022-10-24T14:54:36;12.30;;;11.90;;
26820;SDS011;37186;51.394;5.454;2022-10-24T14:57:37;11.27;;;10.98;;
26820;SDS011;37186;51.394;5.454;2022-10-24T15:00:38;11.10;;;10.80;;
26820;SDS011;37186;51.394;5.454;2022-10-24T15:03:48;10.90;;;10.60;;
26820;SDS011;37186;51.394;5.454;2022-10-24T15:07:11;11.18;;;10.88;;
26820;SDS011;37186;51.394;5.454;2022-10-24T15:10:31;11.82;;;11.48;;
26820;SDS011;37186;51.394;5.454;2022-10-24T15:13:42;12.40;;;12.00;;
26820;SDS011;37186;51.394;5.454;2022-10-24T15:16:44;12.48;;;12.07;;
26820;SDS011;37186;51.394;5.454;2022-10-24T15:19:46;12.35;;;11.95;;
26820;SDS011;37186;51.394;5.454;2022-10-24T15:22:48;13.63;;;13.23;;
26820;SDS011;37186;51.394;5.454;2022-10-24T15:25:58;12.73;;;12.32;;
26820;SDS011;37186;51.394;5.454;2022-10-24T15:32:04;12.82;;;12.43;;
26820;SDS011;37186;51.394;5.454;2022-10-24T15:35:05;12.55;;;12.15;;
26820;SDS011;37186;51.394;5.454;2022-10-24T15:38:11;13.07;;;12.68;;
26820;SDS011;37186;51.394;5.454;2022-10-24T15:41:14;11.93;;;11.57;;
26820;SDS011;37186;51.394;5.454;2022-10-24T15:44:22;12.70;;;12.30;;
26820;SDS011;37186;51.394;5.454;2022-10-24T15:47:25;11.73;;;11.38;;
26820;SDS011;37186;51.394;5.454;2022-10-24T15:50:26;12.02;;;11.65;;
26820;SDS011;37186;51.394;5.454;2022-10-24T15:53:26;11.48;;;11.15;;
26820;SDS011;37186;51.394;5.454;2022-10-24T15:56:27;11.55;;;11.23;;
26820;SDS011;37186;51.394;5.454;2022-10-24T15:59:27;10.75;;;10.45;;
26820;SDS011;37186;51.394;5.454;2022-10-24T16:02:28;10.57;;;10.27;;
26820;SDS011;37186;51.394;5.454;2022-10-24T16:05:34;10.05;;;9.75;;
26820;SDS011;37186;51.394;5.454;2022-10-24T16:08:37;10.18;;;9.88;;
26820;SDS011;37186;51.394;5.454;2022-10-24T16:11:37;10.40;;;10.10;;
26820;SDS011;37186;51.394;5.454;2022-10-24T16:14:38;9.90;;;9.60;;
26820;SDS011;37186;51.394;5.454;2022-10-24T16:17:39;10.18;;;9.88;;
26820;SDS011;37186;51.394;5.454;2022-10-24T16:20:39;10.30;;;10.00;;
26820;SDS011;37186;51.394;5.454;2022-10-24T16:23:40;10.27;;;9.98;;
26820;SDS011;37186;51.394;5.454;2022-10-24T16:26:41;10.45;;;10.15;;
26820;SDS011;37186;51.394;5.454;2022-10-24T16:29:41;10.35;;;10.05;;
26820;SDS011;37186;51.394;5.454;2022-10-24T16:32:42;10.23;;;9.93;;
26820;SDS011;37186;51.394;5.454;2022-10-24T16:35:42;9.80;;;9.50;;
26820;SDS011;37186;51.394;5.454;2022-10-24T16:38:43;10.18;;;9.88;;
26820;SDS011;37186;51.394;5.454;2022-10-24T16:41:45;9.88;;;9.57;;
26820;SDS011;37186;51.394;5.454;2022-10-24T16:44:45;9.65;;;9.35;;
26820;SDS011;37186;51.394;5.454;2022-10-24T16:47:46;10.30;;;10.00;;
26820;SDS011;37186;51.394;5.454;2022-10-24T16:50:48;10.50;;;10.20;;
26820;SDS011;37186;51.394;5.454;2022-10-24T16:53:49;9.82;;;9.52;;
26820;SDS011;37186;51.394;5.454;2022-10-24T16:56:49;10.13;;;9.82;;
26820;SDS011;37186;51.394;5.454;2022-10-24T16:59:51;9.65;;;9.35;;
26820;SDS011;37186;51.394;5.454;2022-10-24T17:02:52;9.75;;;9.45;;
26820;SDS011;37186;51.394;5.454;2022-10-24T17:05:54;9.57;;;9.27;;
26820;SDS011;37186;51.394;5.454;2022-10-24T17:08:54;9.60;;;9.30;;
26820;SDS011;37186;51.394;5.454;2022-10-24T17:11:55;9.27;;;8.98;;
26820;SDS011;37186;51.394;5.454;2022-10-24T17:14:58;9.43;;;9.13;;
26820;SDS011;37186;51.394;5.454;2022-10-24T17:17:59;9.68;;;9.38;;
26820;SDS011;37186;51.394;5.454;2022-10-24T17:21:00;8.63;;;8.40;;
26820;SDS011;37186;51.394;5.454;2022-10-24T17:24:01;9.15;;;8.88;;
26820;SDS011;37186;51.394;5.454;2022-10-24T17:27:02;8.85;;;8.60;;
26820;SDS011;37186;51.394;5.454;2022-10-24T17:30:03;8.63;;;8.40;;
26820;SDS011;37186;51.394;5.454;2022-10-24T17:33:04;8.68;;;8.45;;
26820;SDS011;37186;51.394;5.454;2022-10-24T17:36:05;9.07;;;8.77;;
26820;SDS011;37186;51.394;5.454;2022-10-24T17:39:21;8.63;;;8.40;;
26820;SDS011;37186;51.394;5.454;2022-10-24T17:42:24;9.35;;;9.05;;
26820;SDS011;37186;51.394;5.454;2022-10-24T17:45:25;9.20;;;8.90;;
26820;SDS011;37186;51.394;5.454;2022-10-24T17:48:25;9.90;;;9.60;;
26820;SDS011;37186;51.394;5.454;2022-10-24T17:51:26;10.25;;;9.95;;
26820;SDS011;37186;51.394;5.454;2022-10-24T17:54:27;9.98;;;9.68;;
26820;SDS011;37186;51.394;5.454;2022-10-24T17:57:27;10.10;;;9.80;;
26820;SDS011;37186;51.394;5.454;2022-10-24T18:00:28;10.23;;;9.93;;
26820;SDS011;37186;51.394;5.454;2022-10-24T18:03:29;9.77;;;9.48;;
26820;SDS011;37186;51.394;5.454;2022-10-24T18:06:30;10.15;;;9.85;;
26820;SDS011;37186;51.394;5.454;2022-10-24T18:09:30;10.93;;;10.63;;
26820;SDS011;37186;51.394;5.454;2022-10-24T18:12:31;10.57;;;10.27;;
26820;SDS011;37186;51.394;5.454;2022-10-24T18:15:37;10.98;;;10.68;;
26820;SDS011;37186;51.394;5.454;2022-10-24T18:18:37;10.40;;;10.10;;
26820;SDS011;37186;51.394;5.454;2022-10-24T18:21:39;10.63;;;10.32;;
26820;SDS011;37186;51.394;5.454;2022-10-24T18:24:39;11.25;;;10.95;;
26820;SDS011;37186;51.394;5.454;2022-10-24T18:27:40;10.90;;;10.60;;
26820;SDS011;37186;51.394;5.454;2022-10-24T18:30:41;10.75;;;10.45;;
26820;SDS011;37186;51.394;5.454;2022-10-24T18:33:41;10.85;;;10.55;;
26820;SDS011;37186;51.394;5.454;2022-10-24T18:36:42;11.23;;;10.93;;
26820;SDS011;37186;51.394;5.454;2022-10-24T18:39:43;11.27;;;10.98;;
26820;SDS011;37186;51.394;5.454;2022-10-24T18:42:53;12.10;;;11.70;;
26820;SDS011;37186;51.394;5.454;2022-10-24T18:45:57;11.80;;;11.48;;
26820;SDS011;37186;51.394;5.454;2022-10-24T18:48:58;12.05;;;11.68;;
26820;SDS011;37186;51.394;5.454;2022-10-24T18:55:16;12.95;;;12.55;;
26820;SDS011;37186;51.394;5.454;2022-10-24T18:58:21;12.63;;;12.23;;
26820;SDS011;37186;51.394;5.454;2022-10-24T19:01:25;13.45;;;13.05;;
26820;SDS011;37186;51.394;5.454;2022-10-24T19:04:32;13.90;;;13.50;;
26820;SDS011;37186;51.394;5.454;2022-10-24T19:07:35;13.65;;;13.25;;
26820;SDS011;37186;51.394;5.454;2022-10-24T19:10:35;13.57;;;13.18;;
26820;SDS011;37186;51.394;5.454;2022-10-24T19:13:36;13.98;;;13.57;;
26820;SDS011;37186;51.394;5.454;2022-10-24T19:16:37;14.05;;;13.65;;
26820;SDS011;37186;51.394;5.454;2022-10-24T19:19:37;14.05;;;13.65;;
26820;SDS011;37186;51.394;5.454;2022-10-24T19:22:38;13.93;;;13.52;;
26820;SDS011;37186;51.394;5.454;2022-10-24T19:25:38;13.93;;;13.52;;
26820;SDS011;37186;51.394;5.454;2022-10-24T19:28:39;13.88;;;13.48;;
26820;SDS011;37186;51.394;5.454;2022-10-24T19:31:40;13.70;;;13.30;;
26820;SDS011;37186;51.394;5.454;2022-10-24T19:34:40;14.20;;;13.80;;
26820;SDS011;37186;51.394;5.454;2022-10-24T19:37:41;14.30;;;13.90;;
26820;SDS011;37186;51.394;5.454;2022-10-24T19:43:50;14.93;;;14.48;;
26820;SDS011;37186;51.394;5.454;2022-10-24T19:46:51;14.90;;;14.43;;
26820;SDS011;37186;51.394;5.454;2022-10-24T19:49:51;15.38;;;14.88;;